createdAt,value
2023-03-26T00:04:08.025Z,9.00
2023-03-26T00:06:39.415Z,8.76
2023-03-26T00:09:08.393Z,8.90
2023-03-26T00:11:35.918Z,8.87
2023-03-26T00:14:05.625Z,8.88
2023-03-26T00:16:33.781Z,8.83
2023-03-26T00:19:02.082Z,8.81
2023-03-26T00:21:30.352Z,8.80
2023-03-26T00:23:59.767Z,8.78
2023-03-26T00:26:27.296Z,8.69
2023-03-26T00:28:54.692Z,8.68
2023-03-26T00:31:24.074Z,8.45
2023-03-26T00:33:54.359Z,8.67
2023-03-26T00:36:22.637Z,8.56
2023-03-26T00:38:49.783Z,8.39
2023-03-26T00:41:22.715Z,8.68
2023-03-26T00:43:51.532Z,8.64
2023-03-26T00:46:19.044Z,8.64
2023-03-26T00:48:47.678Z,8.60
2023-03-26T00:51:17.465Z,8.29
2023-03-26T00:53:45.866Z,8.48
2023-03-26T00:56:14.104Z,8.15
2023-03-26T00:58:41.781Z,8.38
2023-03-26T01:01:13.922Z,8.25
2023-03-26T01:03:53.204Z,8.29
2023-03-26T01:06:28.156Z,8.03
2023-03-26T01:09:00.308Z,8.26
2023-03-26T01:11:32.057Z,8.10
2023-03-26T01:14:01.507Z,8.02
2023-03-26T01:16:34.200Z,8.01
2023-03-26T01:19:01.192Z,8.31
2023-03-26T01:21:30.498Z,8.38
2023-03-26T01:23:59.741Z,8.44
2023-03-26T01:26:54.064Z,8.47
2023-03-26T01:29:29.860Z,8.45
2023-03-26T01:32:03.698Z,8.44
2023-03-26T01:34:49.706Z,8.22
2023-03-26T01:37:24.876Z,8.31
2023-03-26T01:39:57.218Z,8.41
2023-03-26T01:42:33.975Z,8.37
2023-03-26T01:45:07.293Z,8.37
2023-03-26T01:47:36.551Z,8.39
2023-03-26T01:50:03.603Z,8.39
2023-03-26T01:52:31.659Z,8.34
2023-03-26T01:55:00.441Z,8.06
2023-03-26T01:57:33.853Z,8.29
2023-03-26T02:00:16.437Z,8.15
2023-03-26T02:03:05.910Z,8.18
2023-03-26T02:05:38.964Z,8.15
2023-03-26T02:08:16.620Z,8.10
2023-03-26T02:10:47.467Z,8.15
2023-03-26T02:13:19.066Z,7.99
2023-03-26T02:15:55.790Z,8.19
2023-03-26T02:18:24.281Z,8.12
2023-03-26T02:20:53.089Z,8.18
2023-03-26T02:23:20.459Z,8.17
2023-03-26T02:25:48.921Z,8.18
2023-03-26T02:28:17.007Z,8.19
2023-03-26T02:30:45.942Z,8.15
2023-03-26T02:33:15.376Z,8.14
2023-03-26T02:35:45.870Z,8.13
2023-03-26T02:38:14.543Z,8.08
2023-03-26T02:40:41.756Z,7.82
2023-03-26T02:43:10.533Z,7.97
2023-03-26T02:45:37.696Z,8.01
2023-03-26T02:48:05.490Z,8.01
2023-03-26T02:50:36.819Z,7.86
2023-03-26T02:53:04.075Z,8.03
2023-03-26T02:55:31.247Z,8.05
2023-03-26T02:57:58.443Z,7.96
2023-03-26T03:00:27.133Z,8.01
2023-03-26T03:02:57.884Z,8.04
2023-03-26T03:05:28.576Z,8.04
2023-03-26T03:07:58.076Z,7.77
2023-03-26T03:10:25.599Z,7.97
2023-03-26T03:12:53.635Z,7.81
2023-03-26T03:15:20.496Z,7.71
2023-03-26T03:17:49.191Z,7.94
2023-03-26T03:20:16.907Z,7.93
2023-03-26T03:22:44.583Z,7.92
2023-03-26T03:25:17.525Z,7.69
2023-03-26T03:27:44.913Z,7.35
2023-03-26T03:30:13.951Z,7.64
2023-03-26T03:32:41.802Z,7.82
2023-03-26T03:35:10.822Z,7.58
2023-03-26T03:37:37.884Z,7.78
2023-03-26T03:40:07.710Z,7.38
2023-03-26T03:42:35.380Z,7.71
2023-03-26T03:45:02.422Z,7.76
2023-03-26T03:47:29.859Z,7.60
2023-03-26T03:49:57.058Z,7.74
2023-03-26T03:52:25.641Z,7.71
2023-03-26T03:54:52.656Z,7.71
2023-03-26T03:57:21.969Z,7.71
2023-03-26T03:59:49.202Z,7.72
2023-03-26T04:02:34.737Z,7.73
2023-03-26T04:05:02.581Z,7.74
2023-03-26T04:07:32.321Z,7.70
2023-03-26T04:10:00.185Z,7.63
2023-03-26T04:12:28.170Z,7.65
2023-03-26T04:14:55.695Z,7.62
2023-03-26T04:17:23.159Z,7.61
2023-03-26T04:19:52.901Z,7.57
2023-03-26T04:22:21.554Z,7.66
2023-03-26T04:24:50.241Z,7.70
2023-03-26T04:27:31.573Z,7.49
2023-03-26T04:30:01.135Z,7.63
2023-03-26T04:32:30.870Z,7.65
2023-03-26T04:35:03.167Z,7.58
2023-03-26T04:37:39.607Z,7.41
2023-03-26T04:40:13.729Z,7.65
2023-03-26T04:42:47.118Z,7.86
2023-03-26T04:45:15.685Z,8.08
2023-03-26T04:47:43.135Z,8.35
2023-03-26T04:50:11.653Z,8.54
2023-03-26T04:52:39.262Z,8.58
2023-03-26T04:55:19.563Z,8.28
2023-03-26T04:57:53.765Z,8.52
2023-03-26T05:00:21.431Z,8.33
2023-03-26T05:02:54.902Z,9.29
2023-03-26T05:05:24.193Z,11.34
2023-03-26T05:07:51.791Z,13.54
2023-03-26T05:10:21.820Z,15.81
2023-03-26T05:12:49.497Z,16.76
2023-03-26T05:15:16.704Z,17.03
2023-03-26T05:17:44.073Z,18.21
2023-03-26T05:20:23.291Z,18.19
2023-03-26T05:22:51.359Z,18.11
2023-03-26T05:25:20.440Z,17.94
2023-03-26T05:27:48.049Z,17.28
2023-03-26T05:30:17.019Z,16.72
2023-03-26T05:32:45.049Z,16.13
2023-03-26T05:35:12.999Z,15.77
2023-03-26T05:37:40.191Z,15.54
2023-03-26T05:40:16.660Z,15.30
2023-03-26T05:42:46.089Z,14.95
2023-03-26T05:45:13.908Z,14.68
2023-03-26T05:47:41.466Z,14.59
2023-03-26T05:50:09.991Z,14.53
2023-03-26T05:52:37.942Z,14.30
2023-03-26T05:55:05.656Z,14.28
2023-03-26T05:57:33.740Z,14.38
2023-03-26T06:00:03.193Z,13.92
2023-03-26T06:02:30.780Z,14.46
2023-03-26T06:04:57.858Z,14.68
2023-03-26T06:07:27.073Z,14.87
2023-03-26T06:09:56.482Z,14.97
2023-03-26T06:12:26.736Z,14.63
2023-03-26T06:14:53.692Z,14.38
2023-03-26T06:17:22.431Z,14.21
2023-03-26T06:19:49.393Z,14.14
2023-03-26T06:22:16.737Z,14.03
2023-03-26T06:24:43.765Z,13.84
2023-03-26T06:27:11.020Z,13.81
2023-03-26T06:29:37.980Z,13.69
2023-03-26T06:32:18.480Z,13.73
2023-03-26T06:34:48.366Z,13.69
2023-03-26T06:37:15.731Z,13.90
2023-03-26T06:39:42.925Z,13.86
2023-03-26T06:42:10.407Z,13.79
2023-03-26T06:44:37.723Z,14.07
2023-03-26T06:47:05.415Z,13.80
2023-03-26T06:49:32.439Z,13.70
2023-03-26T06:52:02.888Z,13.74
2023-03-26T06:54:30.368Z,14.14
2023-03-26T06:57:00.135Z,14.33
2023-03-26T06:59:27.376Z,14.46
2023-03-26T07:01:54.624Z,14.61
2023-03-26T07:04:21.614Z,14.67
2023-03-26T07:06:49.748Z,14.40
2023-03-26T07:09:18.345Z,14.70
2023-03-26T07:11:45.639Z,14.90
2023-03-26T07:14:17.827Z,14.92
2023-03-26T07:17:00.396Z,14.40
2023-03-26T07:22:22.448Z,14.92
2023-03-26T07:24:51.774Z,14.35
2023-03-26T07:27:37.716Z,14.70
2023-03-26T07:30:09.116Z,14.75
2023-03-26T07:32:45.317Z,14.54
2023-03-26T07:35:20.850Z,14.75
2023-03-26T07:37:59.659Z,14.40
2023-03-26T07:40:53.149Z,14.85
2023-03-26T07:43:33.777Z,14.49
2023-03-26T07:46:01.290Z,14.76
2023-03-26T07:48:40.798Z,14.94
2023-03-26T07:51:09.113Z,15.13
2023-03-26T07:53:37.426Z,15.16
2023-03-26T07:56:14.373Z,15.30
2023-03-26T07:58:56.532Z,15.43
2023-03-26T08:01:36.387Z,15.48
2023-03-26T08:04:24.653Z,15.70
2023-03-26T08:06:58.608Z,16.13
2023-03-26T08:09:35.201Z,16.13
2023-03-26T08:12:10.596Z,16.23
2023-03-26T08:14:51.274Z,16.28
2023-03-26T08:17:31.027Z,16.65
2023-03-26T08:20:08.048Z,16.63
2023-03-26T08:22:38.884Z,16.16
2023-03-26T08:25:21.331Z,16.08
2023-03-26T08:28:04.301Z,16.31
2023-03-26T08:30:32.529Z,16.34
2023-03-26T08:33:04.676Z,16.50
2023-03-26T08:35:35.242Z,16.43
2023-03-26T08:38:02.360Z,16.72
2023-03-26T08:40:57.508Z,16.34
2023-03-26T08:44:02.682Z,16.26
2023-03-26T08:47:06.332Z,17.06
2023-03-26T08:50:09.277Z,17.20
2023-03-26T08:53:27.929Z,16.98
2023-03-26T08:56:01.443Z,17.22
2023-03-26T08:58:58.853Z,17.17
2023-03-26T09:02:18.595Z,17.19
2023-03-26T09:05:20.016Z,17.26
2023-03-26T09:08:37.465Z,17.32
2023-03-26T09:12:01.425Z,17.50
2023-03-26T09:14:57.673Z,17.50
2023-03-26T09:17:53.718Z,17.58
2023-03-26T09:20:51.609Z,17.46
2023-03-26T09:23:41.281Z,17.55
2023-03-26T09:26:23.884Z,17.52
2023-03-26T09:29:14.167Z,17.91
2023-03-26T09:32:30.997Z,17.77
2023-03-26T09:35:13.554Z,17.95
2023-03-26T09:37:57.453Z,18.21
2023-03-26T09:40:37.043Z,17.92
2023-03-26T09:43:29.234Z,17.88
2023-03-26T09:46:10.578Z,17.59
2023-03-26T09:49:12.834Z,17.89
2023-03-26T09:51:56.358Z,18.06
2023-03-26T09:54:54.951Z,18.10
2023-03-26T09:57:41.509Z,18.09
2023-03-26T10:00:21.648Z,18.21
2023-03-26T10:03:21.862Z,18.37
2023-03-26T10:06:04.431Z,18.42
2023-03-26T10:08:48.068Z,18.61
2023-03-26T10:11:23.963Z,18.75
2023-03-26T10:13:59.183Z,18.89
2023-03-26T10:16:35.492Z,18.95
2023-03-26T10:19:37.796Z,18.95
2023-03-26T10:22:21.293Z,19.06
2023-03-26T10:25:22.288Z,18.74
2023-03-26T10:27:58.755Z,18.97
2023-03-26T10:30:52.705Z,18.82
2023-03-26T10:33:30.599Z,18.73
2023-03-26T10:36:15.045Z,18.88
2023-03-26T10:42:24.536Z,18.67
2023-03-26T10:45:14.149Z,18.70
2023-03-26T10:48:02.226Z,18.89
2023-03-26T10:50:52.458Z,18.96
2023-03-26T10:53:31.023Z,19.00
2023-03-26T10:56:07.268Z,18.88
2023-03-26T10:58:49.786Z,18.87
2023-03-26T11:01:27.318Z,18.89
2023-03-26T11:03:55.909Z,19.04
2023-03-26T11:06:41.397Z,18.55
2023-03-26T11:09:22.626Z,18.88
2023-03-26T11:11:57.530Z,19.00
2023-03-26T11:14:35.219Z,19.13
2023-03-26T11:17:40.690Z,19.17
2023-03-26T11:20:07.670Z,19.32
2023-03-26T11:22:46.885Z,19.20
2023-03-26T11:25:46.413Z,19.18
2023-03-26T11:28:28.692Z,19.54
2023-03-26T11:31:04.571Z,19.42
2023-03-26T11:33:37.728Z,19.43
2023-03-26T11:36:17.816Z,19.50
2023-03-26T11:38:47.512Z,19.72
2023-03-26T11:41:22.733Z,19.75
2023-03-26T11:43:55.429Z,19.68
2023-03-26T11:46:26.660Z,19.69
2023-03-26T11:48:58.184Z,19.49
2023-03-26T11:51:29.385Z,19.45
2023-03-26T11:53:57.775Z,19.52
2023-03-26T11:56:30.067Z,19.51
2023-03-26T11:59:01.520Z,19.54
2023-03-26T12:01:44.237Z,19.61
2023-03-26T12:04:13.883Z,19.56
2023-03-26T12:06:52.603Z,19.50
2023-03-26T12:09:20.285Z,19.31
2023-03-26T12:11:49.427Z,19.22
2023-03-26T12:14:19.266Z,19.11
2023-03-26T12:17:03.829Z,19.41
2023-03-26T12:19:40.114Z,19.47
2023-03-26T12:22:29.601Z,19.55
2023-03-26T12:25:18.099Z,19.55
2023-03-26T12:27:48.466Z,19.51
2023-03-26T12:30:22.433Z,19.57
2023-03-26T12:32:55.748Z,19.68
2023-03-26T12:35:27.386Z,19.68
2023-03-26T12:37:56.070Z,19.63
2023-03-26T12:40:35.963Z,19.56
2023-03-26T12:44:46.501Z,19.50
2023-03-26T12:47:45.807Z,18.97
2023-03-26T12:48:45.810Z,19.40
2023-03-26T12:51:26.321Z,19.46
2023-03-26T12:54:13.623Z,19.52
2023-03-26T12:56:48.001Z,19.46
2023-03-26T12:59:28.724Z,19.59
2023-03-26T13:02:07.141Z,19.70
2023-03-26T13:05:06.048Z,19.79
2023-03-26T13:07:49.583Z,19.72
2023-03-26T13:10:49.437Z,19.73
2023-03-26T13:13:46.834Z,19.70
2023-03-26T13:16:24.008Z,19.65
2023-03-26T13:18:55.814Z,19.68
2023-03-26T13:21:36.991Z,19.63
2023-03-26T13:24:13.690Z,19.55
2023-03-26T13:27:00.616Z,19.36
2023-03-26T13:29:34.600Z,19.46
2023-03-26T13:32:07.563Z,19.48
2023-03-26T13:34:42.872Z,19.37
2023-03-26T13:37:17.450Z,19.40
2023-03-26T13:39:58.355Z,19.33
2023-03-26T13:42:38.591Z,19.45
2023-03-26T13:45:20.289Z,19.59
2023-03-26T13:47:51.043Z,19.63
2023-03-26T13:50:25.055Z,19.58
2023-03-26T13:52:59.432Z,19.61
2023-03-26T13:55:30.673Z,19.71
2023-03-26T13:58:04.888Z,19.77
2023-03-26T14:00:49.812Z,19.82
2023-03-26T14:03:24.452Z,19.69
2023-03-26T14:05:55.520Z,19.56
2023-03-26T14:08:32.726Z,19.65
2023-03-26T14:11:10.754Z,19.64
2023-03-26T14:13:46.177Z,19.55
2023-03-26T14:16:18.113Z,19.53
2023-03-26T14:18:52.338Z,19.50
2023-03-26T14:21:34.327Z,19.49
2023-03-26T14:24:24.467Z,19.52
2023-03-26T14:27:08.116Z,19.48
2023-03-26T14:29:56.625Z,19.37
2023-03-26T14:32:50.967Z,19.24
2023-03-26T14:35:35.166Z,19.35
2023-03-26T14:38:34.554Z,19.24
2023-03-26T14:41:17.984Z,19.15
2023-03-26T14:44:18.713Z,18.96
2023-03-26T14:46:59.307Z,18.79
2023-03-26T14:49:40.726Z,18.57
2023-03-26T14:52:13.764Z,18.46
2023-03-26T14:54:44.264Z,18.62
2023-03-26T14:57:58.457Z,18.75
2023-03-26T15:00:44.644Z,18.86
2023-03-26T15:03:51.104Z,18.83
2023-03-26T15:06:58.460Z,18.85
2023-03-26T15:10:16.860Z,18.67
2023-03-26T15:13:01.765Z,18.56
2023-03-26T15:15:59.376Z,18.34
2023-03-26T15:18:47.703Z,18.16
2023-03-26T15:21:27.930Z,18.04
2023-03-26T15:24:31.500Z,18.06
2023-03-26T15:27:32.498Z,18.12
2023-03-26T15:30:32.972Z,18.12
2023-03-26T15:33:38.503Z,18.17
2023-03-26T15:36:28.229Z,18.17
2023-03-26T15:39:28.213Z,18.11
2023-03-26T15:42:03.975Z,18.05
2023-03-26T15:44:53.203Z,17.94
2023-03-26T15:47:37.963Z,17.69
2023-03-26T15:50:27.014Z,17.70
2023-03-26T15:53:02.798Z,17.35
2023-03-26T15:55:36.654Z,17.45
2023-03-26T15:58:16.481Z,17.37
2023-03-26T16:00:55.464Z,17.29
2023-03-26T16:03:34.365Z,17.16
2023-03-26T16:06:31.051Z,16.88
2023-03-26T16:09:11.579Z,16.77
2023-03-26T16:11:53.745Z,16.94
2023-03-26T16:14:23.906Z,16.67
2023-03-26T16:16:54.954Z,16.74
2023-03-26T16:19:46.024Z,16.70
2023-03-26T16:22:42.882Z,16.68
2023-03-26T16:25:27.249Z,16.63
2023-03-26T16:28:29.940Z,16.56
2023-03-26T16:31:37.508Z,16.49
2023-03-26T16:34:26.182Z,16.08
2023-03-26T16:36:54.345Z,16.03
2023-03-26T16:39:25.096Z,16.33
2023-03-26T16:42:06.248Z,16.22
2023-03-26T16:44:43.936Z,15.70
2023-03-26T16:47:21.990Z,16.05
2023-03-26T16:50:09.600Z,15.51
2023-03-26T16:52:45.252Z,15.65
2023-03-26T16:55:20.242Z,15.37
2023-03-26T16:57:56.273Z,15.75
2023-03-26T17:00:38.187Z,15.26
2023-03-26T17:03:28.269Z,15.30
2023-03-26T17:06:07.685Z,15.45
2023-03-26T17:08:44.677Z,15.24
2023-03-26T17:11:22.888Z,15.30
2023-03-26T17:14:03.820Z,15.20
2023-03-26T17:16:35.919Z,14.97
2023-03-26T17:19:12.257Z,14.80
2023-03-26T17:21:50.712Z,14.89
2023-03-26T17:24:27.500Z,14.86
2023-03-26T17:27:03.046Z,14.65
2023-03-26T17:29:47.744Z,14.73
2023-03-26T17:32:15.718Z,14.43
2023-03-26T17:34:54.824Z,14.08
2023-03-26T17:37:37.166Z,14.47
2023-03-26T17:40:47.989Z,14.37
2023-03-26T17:43:42.920Z,14.30
2023-03-26T17:46:23.360Z,14.13
2023-03-26T17:48:58.175Z,14.12
2023-03-26T17:51:43.083Z,14.10
2023-03-26T17:54:22.275Z,13.95
2023-03-26T17:56:52.477Z,13.54
2023-03-26T17:59:24.879Z,14.01
2023-03-26T18:01:57.578Z,14.01
2023-03-26T18:04:31.201Z,13.89
2023-03-26T18:07:23.093Z,13.93
2023-03-26T18:10:09.460Z,13.38
2023-03-26T18:12:51.789Z,13.68
2023-03-26T18:15:33.955Z,13.61
2023-03-26T18:18:10.697Z,13.44
2023-03-26T18:20:38.494Z,13.65
2023-03-26T18:23:20.205Z,13.61
2023-03-26T18:25:52.157Z,13.24
2023-03-26T18:28:19.118Z,13.56
2023-03-26T18:30:51.108Z,13.52
2023-03-26T18:33:18.221Z,13.44
2023-03-26T18:35:49.732Z,12.56
2023-03-26T18:38:35.688Z,12.99
2023-03-26T18:41:21.447Z,12.77
2023-03-26T18:43:48.630Z,13.23
2023-03-26T18:46:17.398Z,13.07
2023-03-26T18:48:46.177Z,13.14
2023-03-26T18:51:15.933Z,13.10
2023-03-26T18:53:50.172Z,12.47
2023-03-26T18:56:28.544Z,13.01
2023-03-26T18:58:58.166Z,12.75
2023-03-26T19:01:31.812Z,12.63
2023-03-26T19:04:02.224Z,12.80
2023-03-26T19:06:31.099Z,12.81
2023-03-26T19:08:58.601Z,12.79
2023-03-26T19:11:27.570Z,12.67
2023-03-26T19:14:06.724Z,12.74
2023-03-26T19:16:37.213Z,12.73
2023-03-26T19:19:07.574Z,12.48
2023-03-26T19:21:36.211Z,12.61
2023-03-26T19:24:06.816Z,12.57
2023-03-26T19:26:36.486Z,12.41
2023-03-26T19:29:04.406Z,12.55
2023-03-26T19:31:34.912Z,12.53
2023-03-26T19:34:19.614Z,12.41
2023-03-26T19:36:58.133Z,12.47
2023-03-26T19:39:36.728Z,12.43
2023-03-26T19:42:07.637Z,12.44
2023-03-26T19:44:39.554Z,12.44
2023-03-26T19:47:15.880Z,12.43
2023-03-26T19:49:51.299Z,12.35
2023-03-26T19:52:23.466Z,12.40
2023-03-26T19:55:00.074Z,12.22
2023-03-26T19:57:29.330Z,12.50
2023-03-26T19:59:56.814Z,12.47
2023-03-26T20:02:24.541Z,12.48
2023-03-26T20:04:53.198Z,12.33
2023-03-26T20:07:22.171Z,12.39
2023-03-26T20:10:05.601Z,12.47
2023-03-26T20:12:34.509Z,12.48
2023-03-26T20:15:02.154Z,12.49
2023-03-26T20:17:30.928Z,12.53
2023-03-26T20:19:59.648Z,12.51
2023-03-26T20:22:27.432Z,12.50
2023-03-26T20:24:54.710Z,12.49
2023-03-26T20:27:22.510Z,12.57
2023-03-26T20:29:49.673Z,12.62
2023-03-26T20:32:19.877Z,12.48
2023-03-26T20:34:49.855Z,12.62
2023-03-26T20:37:18.720Z,12.43
2023-03-26T20:39:46.362Z,12.50
2023-03-26T20:42:16.229Z,12.41
2023-03-26T20:44:43.699Z,12.51
2023-03-26T20:47:11.460Z,12.49
2023-03-26T20:49:38.907Z,12.52
2023-03-26T20:52:06.435Z,12.50
2023-03-26T20:54:35.717Z,12.46
2023-03-26T20:57:03.075Z,12.43
2023-03-26T20:59:30.238Z,12.39
2023-03-26T21:01:59.410Z,12.26
2023-03-26T21:04:27.702Z,12.24
2023-03-26T21:07:00.336Z,12.03
2023-03-26T21:09:36.116Z,12.20
2023-03-26T21:12:08.117Z,12.14
2023-03-26T21:14:41.056Z,11.96
2023-03-26T21:17:13.798Z,11.82
2023-03-26T21:19:41.415Z,11.76
2023-03-26T21:22:19.899Z,11.76
2023-03-26T21:25:10.426Z,11.65
2023-03-26T21:27:44.571Z,11.79
2023-03-26T21:30:17.585Z,11.78
2023-03-26T21:32:46.176Z,11.75
2023-03-26T21:35:15.227Z,11.78
2023-03-26T21:37:45.714Z,11.80
2023-03-26T21:40:19.291Z,11.78
2023-03-26T21:42:48.652Z,11.73
2023-03-26T21:45:16.746Z,11.70
2023-03-26T21:47:45.712Z,11.66
2023-03-26T21:50:15.616Z,11.70
2023-03-26T21:52:49.230Z,11.81
2023-03-26T21:55:20.237Z,11.85
2023-03-26T21:58:15.360Z,11.75
2023-03-26T22:00:50.641Z,11.74
2023-03-26T22:03:25.310Z,11.59
2023-03-26T22:05:58.782Z,11.79
2023-03-26T22:08:29.804Z,11.33
2023-03-26T22:10:58.384Z,11.60
2023-03-26T22:13:25.809Z,11.57
2023-03-26T22:15:52.837Z,11.42
2023-03-26T22:18:21.639Z,11.12
2023-03-26T22:20:49.206Z,11.25
2023-03-26T22:23:16.874Z,11.11
2023-03-26T22:25:44.115Z,11.02
2023-03-26T22:28:12.929Z,10.97
2023-03-26T22:30:40.077Z,10.92
2023-03-26T22:33:11.901Z,10.85
2023-03-26T22:35:41.366Z,10.94
2023-03-26T22:38:09.761Z,10.94
2023-03-26T22:40:36.743Z,10.90
2023-03-26T22:43:04.204Z,10.91
2023-03-26T22:45:32.769Z,10.88
2023-03-26T22:48:03.713Z,10.86
2023-03-26T22:50:31.759Z,10.77
2023-03-26T22:52:59.269Z,10.69
2023-03-26T22:55:28.763Z,10.63
2023-03-26T22:57:57.526Z,10.59
2023-03-26T23:00:26.388Z,10.20
2023-03-26T23:03:00.258Z,10.51
2023-03-26T23:05:28.632Z,10.52
2023-03-26T23:07:57.108Z,10.55
2023-03-26T23:10:24.190Z,10.61
2023-03-26T23:12:52.261Z,10.62
2023-03-26T23:15:20.662Z,10.60
2023-03-26T23:17:54.520Z,10.60
2023-03-26T23:20:23.436Z,10.59
2023-03-26T23:22:51.358Z,10.65
2023-03-26T23:25:18.444Z,10.81
2023-03-26T23:27:45.738Z,10.61
2023-03-26T23:30:13.599Z,10.72
2023-03-26T23:32:41.458Z,10.72
2023-03-26T23:35:09.223Z,10.79
2023-03-26T23:37:37.988Z,10.83
2023-03-26T23:40:10.013Z,10.79
2023-03-26T23:42:38.092Z,10.84
2023-03-26T23:45:05.846Z,10.87
2023-03-26T23:47:34.960Z,10.81
2023-03-26T23:50:02.564Z,10.95
2023-03-26T23:52:30.286Z,10.55
2023-03-26T23:55:02.073Z,10.96
2023-03-26T23:57:30.553Z,11.04
2023-03-26T23:59:58.404Z,11.02
